sensor_id;sensor_type;location;lat;lon;timestamp;P1;durP1;ratioP1;P2;durP2;ratioP2
22131;SDS011;11232;51.748;19.390;2022-10-04T00:01:03;11.07;;;4.57;;
22131;SDS011;11232;51.748;19.390;2022-10-04T00:03:40;12.50;;;4.67;;
22131;SDS011;11232;51.748;19.390;2022-10-04T00:06:22;17.27;;;3.90;;
22131;SDS011;11232;51.748;19.390;2022-10-04T00:11:33;11.80;;;4.47;;
22131;SDS011;11232;51.748;19.390;2022-10-04T00:14:04;12.63;;;4.67;;
22131;SDS011;11232;51.748;19.390;2022-10-04T00:16:37;13.00;;;4.60;;
22131;SDS011;11232;51.748;19.390;2022-10-04T00:24:29;14.07;;;4.70;;
22131;SDS011;11232;51.748;19.390;2022-10-04T00:32:29;13.30;;;5.20;;
22131;SDS011;11232;51.748;19.390;2022-10-04T00:37:52;14.47;;;5.23;;
22131;SDS011;11232;51.748;19.390;2022-10-04T00:40:38;14.60;;;5.40;;
22131;SDS011;11232;51.748;19.390;2022-10-04T00:43:16;17.90;;;5.70;;
22131;SDS011;11232;51.748;19.390;2022-10-04T00:45:47;13.50;;;5.53;;
22131;SDS011;11232;51.748;19.390;2022-10-04T00:48:51;16.27;;;5.47;;
22131;SDS011;11232;51.748;19.390;2022-10-04T00:51:34;14.27;;;5.47;;
22131;SDS011;11232;51.748;19.390;2022-10-04T00:54:17;11.97;;;5.30;;
22131;SDS011;11232;51.748;19.390;2022-10-04T00:57:03;22.13;;;6.30;;
22131;SDS011;11232;51.748;19.390;2022-10-04T00:59:42;12.63;;;5.67;;
22131;SDS011;11232;51.748;19.390;2022-10-04T01:04:48;17.83;;;5.83;;
22131;SDS011;11232;51.748;19.390;2022-10-04T01:07:34;16.07;;;6.20;;
22131;SDS011;11232;51.748;19.390;2022-10-04T01:10:28;18.37;;;6.27;;
22131;SDS011;11232;51.748;19.390;2022-10-04T01:29:16;17.47;;;5.87;;
22131;SDS011;11232;51.748;19.390;2022-10-04T01:31:49;17.07;;;5.63;;
22131;SDS011;11232;51.748;19.390;2022-10-04T01:34:17;16.23;;;5.57;;
22131;SDS011;11232;51.748;19.390;2022-10-04T01:36:45;21.53;;;6.00;;
22131;SDS011;11232;51.748;19.390;2022-10-04T01:39:13;17.57;;;5.57;;
22131;SDS011;11232;51.748;19.390;2022-10-04T01:44:37;16.00;;;5.53;;
22131;SDS011;11232;51.748;19.390;2022-10-04T01:47:08;14.30;;;5.17;;
22131;SDS011;11232;51.748;19.390;2022-10-04T01:49:38;20.03;;;5.60;;
22131;SDS011;11232;51.748;19.390;2022-10-04T01:52:17;13.13;;;4.87;;
22131;SDS011;11232;51.748;19.390;2022-10-04T01:55:04;17.17;;;5.27;;
22131;SDS011;11232;51.748;19.390;2022-10-04T01:57:44;13.67;;;5.47;;
22131;SDS011;11232;51.748;19.390;2022-10-04T02:00:14;18.60;;;5.10;;
22131;SDS011;11232;51.748;19.390;2022-10-04T02:05:23;20.93;;;5.83;;
22131;SDS011;11232;51.748;19.390;2022-10-04T02:08:01;16.60;;;5.23;;
22131;SDS011;11232;51.748;19.390;2022-10-04T02:10:29;15.93;;;5.23;;
22131;SDS011;11232;51.748;19.390;2022-10-04T02:13:00;20.00;;;5.50;;
22131;SDS011;11232;51.748;19.390;2022-10-04T02:15:27;18.17;;;5.03;;
22131;SDS011;11232;51.748;19.390;2022-10-04T02:17:54;13.20;;;4.73;;
22131;SDS011;11232;51.748;19.390;2022-10-04T02:20:22;18.57;;;5.23;;
22131;SDS011;11232;51.748;19.390;2022-10-04T02:22:51;15.27;;;5.40;;
22131;SDS011;11232;51.748;19.390;2022-10-04T02:25:20;17.03;;;5.27;;
22131;SDS011;11232;51.748;19.390;2022-10-04T02:27:47;20.40;;;5.27;;
22131;SDS011;11232;51.748;19.390;2022-10-04T02:30:19;13.40;;;4.90;;
22131;SDS011;11232;51.748;19.390;2022-10-04T02:32:46;14.50;;;5.30;;
22131;SDS011;11232;51.748;19.390;2022-10-04T02:35:21;20.70;;;5.13;;
22131;SDS011;11232;51.748;19.390;2022-10-04T02:37:53;14.20;;;5.33;;
22131;SDS011;11232;51.748;19.390;2022-10-04T02:40:43;19.70;;;5.37;;
22131;SDS011;11232;51.748;19.390;2022-10-04T02:43:15;17.63;;;5.70;;
22131;SDS011;11232;51.748;19.390;2022-10-04T02:46:17;17.73;;;5.33;;
22131;SDS011;11232;51.748;19.390;2022-10-04T02:48:46;16.30;;;5.33;;
22131;SDS011;11232;51.748;19.390;2022-10-04T02:51:15;13.90;;;5.03;;
22131;SDS011;11232;51.748;19.390;2022-10-04T02:56:49;16.47;;;5.00;;
22131;SDS011;11232;51.748;19.390;2022-10-04T02:59:18;11.87;;;4.87;;
22131;SDS011;11232;51.748;19.390;2022-10-04T03:01:51;15.63;;;5.17;;
22131;SDS011;11232;51.748;19.390;2022-10-04T03:04:17;20.17;;;5.70;;
22131;SDS011;11232;51.748;19.390;2022-10-04T03:06:47;12.57;;;5.30;;
22131;SDS011;11232;51.748;19.390;2022-10-04T03:09:14;19.63;;;5.30;;
22131;SDS011;11232;51.748;19.390;2022-10-04T03:11:43;15.30;;;5.20;;
22131;SDS011;11232;51.748;19.390;2022-10-04T03:14:15;13.43;;;4.70;;
22131;SDS011;11232;51.748;19.390;2022-10-04T03:16:46;12.73;;;4.80;;
22131;SDS011;11232;51.748;19.390;2022-10-04T03:19:15;18.70;;;5.30;;
22131;SDS011;11232;51.748;19.390;2022-10-04T03:21:42;13.90;;;4.80;;
22131;SDS011;11232;51.748;19.390;2022-10-04T03:24:12;13.83;;;4.43;;
22131;SDS011;11232;51.748;19.390;2022-10-04T03:26:49;10.57;;;4.73;;
22131;SDS011;11232;51.748;19.390;2022-10-04T03:29:18;15.80;;;4.57;;
22131;SDS011;11232;51.748;19.390;2022-10-04T03:34:57;15.53;;;4.10;;
22131;SDS011;11232;51.748;19.390;2022-10-04T03:37:28;13.17;;;4.90;;
22131;SDS011;11232;51.748;19.390;2022-10-04T03:39:58;10.47;;;4.17;;
22131;SDS011;11232;51.748;19.390;2022-10-04T03:42:29;13.83;;;4.00;;
22131;SDS011;11232;51.748;19.390;2022-10-04T03:45:02;13.17;;;4.80;;
22131;SDS011;11232;51.748;19.390;2022-10-04T03:47:32;14.33;;;4.33;;
22131;SDS011;11232;51.748;19.390;2022-10-04T03:50:04;11.50;;;4.00;;
22131;SDS011;11232;51.748;19.390;2022-10-04T03:52:43;17.37;;;3.70;;
22131;SDS011;11232;51.748;19.390;2022-10-04T03:55:14;9.20;;;3.80;;
22131;SDS011;11232;51.748;19.390;2022-10-04T03:57:41;14.43;;;4.47;;
22131;SDS011;11232;51.748;19.390;2022-10-04T04:00:07;11.17;;;4.07;;
22131;SDS011;11232;51.748;19.390;2022-10-04T04:02:35;11.00;;;4.23;;
22131;SDS011;11232;51.748;19.390;2022-10-04T04:05:28;10.10;;;4.97;;
22131;SDS011;11232;51.748;19.390;2022-10-04T04:08:06;11.63;;;4.43;;
22131;SDS011;11232;51.748;19.390;2022-10-04T04:10:41;13.00;;;4.53;;
22131;SDS011;11232;51.748;19.390;2022-10-04T04:16:00;14.77;;;4.80;;
22131;SDS011;11232;51.748;19.390;2022-10-04T04:18:31;16.17;;;6.00;;
22131;SDS011;11232;51.748;19.390;2022-10-04T04:20:59;10.47;;;4.50;;
22131;SDS011;11232;51.748;19.390;2022-10-04T04:31:37;11.67;;;5.00;;
22131;SDS011;11232;51.748;19.390;2022-10-04T04:34:26;14.77;;;4.80;;
22131;SDS011;11232;51.748;19.390;2022-10-04T04:36:58;13.67;;;5.93;;
22131;SDS011;11232;51.748;19.390;2022-10-04T04:39:27;16.73;;;5.40;;
22131;SDS011;11232;51.748;19.390;2022-10-04T04:42:05;20.47;;;5.30;;
22131;SDS011;11232;51.748;19.390;2022-10-04T04:44:38;19.03;;;6.67;;
22131;SDS011;11232;51.748;19.390;2022-10-04T04:47:25;15.90;;;5.80;;
22131;SDS011;11232;51.748;19.390;2022-10-04T04:50:06;19.47;;;5.63;;
22131;SDS011;11232;51.748;19.390;2022-10-04T04:52:35;12.23;;;5.43;;
22131;SDS011;11232;51.748;19.390;2022-10-04T04:55:02;25.40;;;5.80;;
22131;SDS011;11232;51.748;19.390;2022-10-04T04:57:29;19.43;;;6.17;;
22131;SDS011;11232;51.748;19.390;2022-10-04T04:59:57;15.43;;;5.57;;
22131;SDS011;11232;51.748;19.390;2022-10-04T05:02:28;12.33;;;6.50;;
22131;SDS011;11232;51.748;19.390;2022-10-04T05:05:18;16.97;;;6.30;;
22131;SDS011;11232;51.748;19.390;2022-10-04T05:07:48;12.87;;;5.93;;
22131;SDS011;11232;51.748;19.390;2022-10-04T05:12:54;13.37;;;5.67;;
22131;SDS011;11232;51.748;19.390;2022-10-04T05:15:20;14.77;;;5.17;;
22131;SDS011;11232;51.748;19.390;2022-10-04T05:17:46;13.07;;;5.63;;
22131;SDS011;11232;51.748;19.390;2022-10-04T05:20:12;8.93;;;5.80;;
22131;SDS011;11232;51.748;19.390;2022-10-04T05:22:38;16.70;;;5.47;;
22131;SDS011;11232;51.748;19.390;2022-10-04T05:25:08;16.10;;;5.17;;
22131;SDS011;11232;51.748;19.390;2022-10-04T05:27:45;11.83;;;5.20;;
22131;SDS011;11232;51.748;19.390;2022-10-04T05:33:01;14.00;;;5.17;;
22131;SDS011;11232;51.748;19.390;2022-10-04T05:38:33;10.10;;;5.13;;
22131;SDS011;11232;51.748;19.390;2022-10-04T05:44:19;15.50;;;6.03;;
22131;SDS011;11232;51.748;19.390;2022-10-04T05:46:52;12.93;;;6.10;;
22131;SDS011;11232;51.748;19.390;2022-10-04T05:49:20;19.83;;;6.10;;
22131;SDS011;11232;51.748;19.390;2022-10-04T05:51:52;15.97;;;5.93;;
22131;SDS011;11232;51.748;19.390;2022-10-04T05:54:23;17.00;;;6.23;;
22131;SDS011;11232;51.748;19.390;2022-10-04T05:56:53;14.40;;;6.87;;
22131;SDS011;11232;51.748;19.390;2022-10-04T06:00:25;19.97;;;5.97;;
22131;SDS011;11232;51.748;19.390;2022-10-04T06:05:27;19.30;;;6.47;;
22131;SDS011;11232;51.748;19.390;2022-10-04T06:08:12;16.20;;;6.23;;
22131;SDS011;11232;51.748;19.390;2022-10-04T06:10:57;14.23;;;5.93;;
22131;SDS011;11232;51.748;19.390;2022-10-04T06:13:39;13.97;;;6.37;;
22131;SDS011;11232;51.748;19.390;2022-10-04T06:24:51;10.50;;;5.73;;
22131;SDS011;11232;51.748;19.390;2022-10-04T06:27:25;17.97;;;5.63;;
22131;SDS011;11232;51.748;19.390;2022-10-04T06:30:04;10.30;;;5.90;;
22131;SDS011;11232;51.748;19.390;2022-10-04T06:36:02;13.43;;;6.03;;
22131;SDS011;11232;51.748;19.390;2022-10-04T06:41:12;12.27;;;5.37;;
22131;SDS011;11232;51.748;19.390;2022-10-04T06:46:44;10.47;;;5.13;;
22131;SDS011;11232;51.748;19.390;2022-10-04T07:05:31;12.33;;;5.60;;
22131;SDS011;11232;51.748;19.390;2022-10-04T07:19:06;15.63;;;5.90;;
22131;SDS011;11232;51.748;19.390;2022-10-04T07:24:11;12.37;;;5.20;;
22131;SDS011;11232;51.748;19.390;2022-10-04T07:26:47;14.60;;;6.27;;
22131;SDS011;11232;51.748;19.390;2022-10-04T07:29:25;19.07;;;5.63;;
22131;SDS011;11232;51.748;19.390;2022-10-04T07:34:35;10.60;;;5.07;;
22131;SDS011;11232;51.748;19.390;2022-10-04T07:37:25;11.50;;;4.77;;
22131;SDS011;11232;51.748;19.390;2022-10-04T07:42:25;14.17;;;5.40;;
22131;SDS011;11232;51.748;19.390;2022-10-04T07:45:10;10.40;;;4.90;;
22131;SDS011;11232;51.748;19.390;2022-10-04T07:48:18;10.40;;;4.87;;
22131;SDS011;11232;51.748;19.390;2022-10-04T07:53:48;11.73;;;5.40;;
22131;SDS011;11232;51.748;19.390;2022-10-04T07:56:38;15.80;;;7.53;;
22131;SDS011;11232;51.748;19.390;2022-10-04T08:02:06;12.70;;;5.60;;
22131;SDS011;11232;51.748;19.390;2022-10-04T08:23:52;11.50;;;6.13;;
22131;SDS011;11232;51.748;19.390;2022-10-04T08:34:44;12.60;;;5.93;;
22131;SDS011;11232;51.748;19.390;2022-10-04T08:52:08;13.30;;;6.00;;
22131;SDS011;11232;51.748;19.390;2022-10-04T08:57:34;11.83;;;5.60;;
22131;SDS011;11232;51.748;19.390;2022-10-04T09:00:25;8.40;;;4.93;;
22131;SDS011;11232;51.748;19.390;2022-10-04T09:02:59;10.27;;;4.95;;
22131;SDS011;11232;51.748;19.390;2022-10-04T09:05:41;8.30;;;4.83;;
22131;SDS011;11232;51.748;19.390;2022-10-04T09:13:56;7.18;;;4.63;;
22131;SDS011;11232;51.748;19.390;2022-10-04T09:19:36;8.25;;;4.63;;
22131;SDS011;11232;51.748;19.390;2022-10-04T09:28:05;9.48;;;4.07;;
22131;SDS011;11232;51.748;19.390;2022-10-04T09:33:54;5.05;;;3.65;;
22131;SDS011;11232;51.748;19.390;2022-10-04T09:42:32;6.95;;;3.15;;
22131;SDS011;11232;51.748;19.390;2022-10-04T09:58:31;5.22;;;2.95;;
22131;SDS011;11232;51.748;19.390;2022-10-04T10:12:12;5.20;;;2.83;;
22131;SDS011;11232;51.748;19.390;2022-10-04T10:20:44;5.85;;;2.08;;
22131;SDS011;11232;51.748;19.390;2022-10-04T10:37:06;4.38;;;2.20;;
22131;SDS011;11232;51.748;19.390;2022-10-04T10:42:19;3.95;;;2.33;;
22131;SDS011;11232;51.748;19.390;2022-10-04T10:45:16;3.95;;;2.38;;
22131;SDS011;11232;51.748;19.390;2022-10-04T10:48:16;8.50;;;2.55;;
22131;SDS011;11232;51.748;19.390;2022-10-04T10:53:54;2.28;;;1.60;;
22131;SDS011;11232;51.748;19.390;2022-10-04T11:10:53;2.58;;;1.55;;
22131;SDS011;11232;51.748;19.390;2022-10-04T11:31:03;3.95;;;2.17;;
22131;SDS011;11232;51.748;19.390;2022-10-04T11:50:20;2.83;;;1.40;;
22131;SDS011;11232;51.748;19.390;2022-10-04T11:52:54;2.55;;;1.30;;
22131;SDS011;11232;51.748;19.390;2022-10-04T12:01:49;3.15;;;1.27;;
22131;SDS011;11232;51.748;19.390;2022-10-04T12:21:17;4.40;;;1.38;;
22131;SDS011;11232;51.748;19.390;2022-10-04T12:26:43;3.67;;;1.50;;
22131;SDS011;11232;51.748;19.390;2022-10-04T12:44:01;3.15;;;1.80;;
22131;SDS011;11232;51.748;19.390;2022-10-04T12:46:51;2.78;;;1.52;;
22131;SDS011;11232;51.748;19.390;2022-10-04T12:50:12;5.03;;;1.92;;
22131;SDS011;11232;51.748;19.390;2022-10-04T12:52:32;4.82;;;1.50;;
22131;SDS011;11232;51.748;19.390;2022-10-04T13:06:41;7.85;;;1.85;;
22131;SDS011;11232;51.748;19.390;2022-10-04T13:17:33;3.45;;;1.60;;
22131;SDS011;11232;51.748;19.390;2022-10-04T13:23:02;3.55;;;1.50;;
22131;SDS011;11232;51.748;19.390;2022-10-04T13:31:18;3.78;;;1.50;;
22131;SDS011;11232;51.748;19.390;2022-10-04T13:42:32;7.43;;;1.60;;
22131;SDS011;11232;51.748;19.390;2022-10-04T13:50:38;3.30;;;1.60;;
22131;SDS011;11232;51.748;19.390;2022-10-04T14:12:47;4.22;;;1.60;;
22131;SDS011;11232;51.748;19.390;2022-10-04T14:18:48;5.20;;;2.22;;
22131;SDS011;11232;51.748;19.390;2022-10-04T14:21:29;4.28;;;2.00;;
22131;SDS011;11232;51.748;19.390;2022-10-04T14:35:34;5.60;;;1.83;;
22131;SDS011;11232;51.748;19.390;2022-10-04T14:38:21;5.25;;;1.65;;
22131;SDS011;11232;51.748;19.390;2022-10-04T14:49:06;5.03;;;1.75;;
22131;SDS011;11232;51.748;19.390;2022-10-04T15:00:36;5.88;;;1.85;;
22131;SDS011;11232;51.748;19.390;2022-10-04T15:03:45;4.47;;;1.88;;
22131;SDS011;11232;51.748;19.390;2022-10-04T15:09:28;4.70;;;2.10;;
22131;SDS011;11232;51.748;19.390;2022-10-04T15:17:39;4.20;;;2.33;;
22131;SDS011;11232;51.748;19.390;2022-10-04T15:22:50;8.00;;;2.22;;
22131;SDS011;11232;51.748;19.390;2022-10-04T15:36:26;8.30;;;3.20;;
22131;SDS011;11232;51.748;19.390;2022-10-04T15:41:52;8.02;;;3.67;;
22131;SDS011;11232;51.748;19.390;2022-10-04T15:52:52;10.85;;;3.20;;
22131;SDS011;11232;51.748;19.390;2022-10-04T15:55:30;8.13;;;2.88;;
22131;SDS011;11232;51.748;19.390;2022-10-04T15:58:24;7.43;;;3.47;;
22131;SDS011;11232;51.748;19.390;2022-10-04T16:01:04;8.07;;;3.08;;
22131;SDS011;11232;51.748;19.390;2022-10-04T16:13:05;9.88;;;4.22;;
22131;SDS011;11232;51.748;19.390;2022-10-04T16:15:41;8.98;;;4.03;;
22131;SDS011;11232;51.748;19.390;2022-10-04T16:23:42;11.03;;;5.37;;
22131;SDS011;11232;51.748;19.390;2022-10-04T16:26:09;9.57;;;5.93;;
22131;SDS011;11232;51.748;19.390;2022-10-04T16:31:14;13.77;;;6.60;;
22131;SDS011;11232;51.748;19.390;2022-10-04T16:33:43;15.50;;;7.93;;
22131;SDS011;11232;51.748;19.390;2022-10-04T16:36:21;18.40;;;8.97;;
22131;SDS011;11232;51.748;19.390;2022-10-04T16:38:52;20.70;;;8.67;;
22131;SDS011;11232;51.748;19.390;2022-10-04T16:41:52;19.40;;;8.70;;
22131;SDS011;11232;51.748;19.390;2022-10-04T16:46:55;19.17;;;8.53;;
22131;SDS011;11232;51.748;19.390;2022-10-04T16:49:43;18.43;;;8.90;;
22131;SDS011;11232;51.748;19.390;2022-10-04T16:52:27;16.43;;;7.67;;
22131;SDS011;11232;51.748;19.390;2022-10-04T16:57:38;21.83;;;8.13;;
22131;SDS011;11232;51.748;19.390;2022-10-04T17:03:02;14.43;;;7.87;;
22131;SDS011;11232;51.748;19.390;2022-10-04T17:13:24;20.73;;;8.17;;
22131;SDS011;11232;51.748;19.390;2022-10-04T17:16:11;15.37;;;7.67;;
22131;SDS011;11232;51.748;19.390;2022-10-04T17:41:09;22.33;;;7.90;;
22131;SDS011;11232;51.748;19.390;2022-10-04T17:44:03;16.65;;;8.75;;
22131;SDS011;11232;51.748;19.390;2022-10-04T17:49:51;15.13;;;8.20;;
22131;SDS011;11232;51.748;19.390;2022-10-04T17:52:39;22.57;;;7.90;;
22131;SDS011;11232;51.748;19.390;2022-10-04T17:56:13;14.33;;;7.00;;
22131;SDS011;11232;51.748;19.390;2022-10-04T17:58:18;13.13;;;7.20;;
22131;SDS011;11232;51.748;19.390;2022-10-04T18:01:10;18.40;;;7.97;;
22131;SDS011;11232;51.748;19.390;2022-10-04T18:03:42;14.07;;;8.17;;
22131;SDS011;11232;51.748;19.390;2022-10-04T18:06:30;18.80;;;9.37;;
22131;SDS011;11232;51.748;19.390;2022-10-04T18:09:07;13.63;;;8.63;;
22131;SDS011;11232;51.748;19.390;2022-10-04T18:11:55;20.67;;;9.63;;
22131;SDS011;11232;51.748;19.390;2022-10-04T18:17:04;18.90;;;9.20;;
22131;SDS011;11232;51.748;19.390;2022-10-04T18:19:42;16.03;;;8.80;;
22131;SDS011;11232;51.748;19.390;2022-10-04T18:22:23;16.37;;;8.53;;
22131;SDS011;11232;51.748;19.390;2022-10-04T18:30:18;16.37;;;8.50;;
22131;SDS011;11232;51.748;19.390;2022-10-04T18:32:51;18.07;;;9.10;;
22131;SDS011;11232;51.748;19.390;2022-10-04T18:35:24;17.33;;;9.23;;
22131;SDS011;11232;51.748;19.390;2022-10-04T18:38:19;16.70;;;9.23;;
22131;SDS011;11232;51.748;19.390;2022-10-04T18:40:55;18.83;;;9.17;;
22131;SDS011;11232;51.748;19.390;2022-10-04T18:43:31;20.90;;;9.33;;
22131;SDS011;11232;51.748;19.390;2022-10-04T18:51:23;17.20;;;9.80;;
22131;SDS011;11232;51.748;19.390;2022-10-04T18:56:25;20.17;;;9.87;;
22131;SDS011;11232;51.748;19.390;2022-10-04T19:02:28;20.97;;;10.00;;
22131;SDS011;11232;51.748;19.390;2022-10-04T19:05:11;21.27;;;9.67;;
22131;SDS011;11232;51.748;19.390;2022-10-04T19:10:35;18.23;;;10.37;;
22131;SDS011;11232;51.748;19.390;2022-10-04T19:13:08;21.73;;;11.80;;
22131;SDS011;11232;51.748;19.390;2022-10-04T19:18:51;23.73;;;12.40;;
22131;SDS011;11232;51.748;19.390;2022-10-04T19:21:32;23.03;;;11.57;;
22131;SDS011;11232;51.748;19.390;2022-10-04T20:48:26;27.90;;;15.23;;
22131;SDS011;11232;51.748;19.390;2022-10-04T20:50:55;37.17;;;15.40;;
22131;SDS011;11232;51.748;19.390;2022-10-04T20:53:30;35.27;;;16.27;;
22131;SDS011;11232;51.748;19.390;2022-10-04T20:56:13;36.10;;;17.23;;
22131;SDS011;11232;51.748;19.390;2022-10-04T20:58:54;32.47;;;16.03;;
22131;SDS011;11232;51.748;19.390;2022-10-04T21:04:28;33.80;;;16.77;;
22131;SDS011;11232;51.748;19.390;2022-10-04T21:06:57;38.53;;;16.77;;
22131;SDS011;11232;51.748;19.390;2022-10-04T21:09:24;34.37;;;18.00;;
22131;SDS011;11232;51.748;19.390;2022-10-04T21:11:52;34.10;;;17.03;;
22131;SDS011;11232;51.748;19.390;2022-10-04T21:14:22;39.60;;;18.03;;
22131;SDS011;11232;51.748;19.390;2022-10-04T21:16:49;36.60;;;18.27;;
22131;SDS011;11232;51.748;19.390;2022-10-04T21:21:57;42.03;;;18.70;;
22131;SDS011;11232;51.748;19.390;2022-10-04T21:24:37;38.70;;;17.63;;
22131;SDS011;11232;51.748;19.390;2022-10-04T21:27:05;37.93;;;18.27;;
22131;SDS011;11232;51.748;19.390;2022-10-04T21:29:34;42.40;;;18.27;;
22131;SDS011;11232;51.748;19.390;2022-10-04T21:32:03;33.80;;;17.77;;
22131;SDS011;11232;51.748;19.390;2022-10-04T21:34:29;40.13;;;18.73;;
22131;SDS011;11232;51.748;19.390;2022-10-04T21:36:55;33.87;;;17.73;;
22131;SDS011;11232;51.748;19.390;2022-10-04T21:39:22;33.73;;;18.67;;
22131;SDS011;11232;51.748;19.390;2022-10-04T21:41:48;37.83;;;17.90;;
22131;SDS011;11232;51.748;19.390;2022-10-04T21:44:13;34.60;;;18.97;;
22131;SDS011;11232;51.748;19.390;2022-10-04T21:46:39;41.53;;;20.03;;
22131;SDS011;11232;51.748;19.390;2022-10-04T21:49:05;39.13;;;18.80;;
22131;SDS011;11232;51.748;19.390;2022-10-04T21:51:31;35.43;;;17.83;;
22131;SDS011;11232;51.748;19.390;2022-10-04T21:53:59;37.93;;;18.23;;
22131;SDS011;11232;51.748;19.390;2022-10-04T21:56:28;35.90;;;17.43;;
22131;SDS011;11232;51.748;19.390;2022-10-04T21:58:54;32.97;;;17.33;;
22131;SDS011;11232;51.748;19.390;2022-10-04T22:01:19;34.87;;;18.13;;
22131;SDS011;11232;51.748;19.390;2022-10-04T22:03:45;39.33;;;18.10;;
22131;SDS011;11232;51.748;19.390;2022-10-04T22:06:11;33.37;;;17.57;;
22131;SDS011;11232;51.748;19.390;2022-10-04T22:08:36;32.73;;;17.10;;
22131;SDS011;11232;51.748;19.390;2022-10-04T22:11:02;36.77;;;18.63;;
22131;SDS011;11232;51.748;19.390;2022-10-04T22:13:27;31.70;;;17.00;;
22131;SDS011;11232;51.748;19.390;2022-10-04T22:15:53;37.30;;;18.27;;
22131;SDS011;11232;51.748;19.390;2022-10-04T22:18:19;42.57;;;17.87;;
22131;SDS011;11232;51.748;19.390;2022-10-04T22:20:44;36.23;;;16.83;;
22131;SDS011;11232;51.748;19.390;2022-10-04T22:23:14;33.23;;;17.13;;
22131;SDS011;11232;51.748;19.390;2022-10-04T22:25:42;32.07;;;17.80;;
22131;SDS011;11232;51.748;19.390;2022-10-04T22:28:13;29.00;;;17.40;;
22131;SDS011;11232;51.748;19.390;2022-10-04T22:30:44;31.47;;;16.90;;
22131;SDS011;11232;51.748;19.390;2022-10-04T22:36:15;31.50;;;17.97;;
22131;SDS011;11232;51.748;19.390;2022-10-04T22:41:18;31.83;;;17.13;;
22131;SDS011;11232;51.748;19.390;2022-10-04T22:43:48;32.33;;;17.17;;
22131;SDS011;11232;51.748;19.390;2022-10-04T22:46:17;32.53;;;16.83;;
22131;SDS011;11232;51.748;19.390;2022-10-04T22:48:44;38.63;;;17.03;;
22131;SDS011;11232;51.748;19.390;2022-10-04T22:51:12;35.60;;;17.63;;
22131;SDS011;11232;51.748;19.390;2022-10-04T22:53:42;34.40;;;17.33;;
22131;SDS011;11232;51.748;19.390;2022-10-04T22:56:09;29.37;;;15.23;;
22131;SDS011;11232;51.748;19.390;2022-10-04T22:58:36;34.20;;;16.03;;
22131;SDS011;11232;51.748;19.390;2022-10-04T23:01:07;37.57;;;15.90;;
22131;SDS011;11232;51.748;19.390;2022-10-04T23:03:39;32.50;;;15.40;;
22131;SDS011;11232;51.748;19.390;2022-10-04T23:06:08;32.43;;;16.17;;
22131;SDS011;11232;51.748;19.390;2022-10-04T23:08:38;33.50;;;15.43;;
22131;SDS011;11232;51.748;19.390;2022-10-04T23:11:05;30.97;;;15.53;;
22131;SDS011;11232;51.748;19.390;2022-10-04T23:13:31;32.00;;;15.87;;
22131;SDS011;11232;51.748;19.390;2022-10-04T23:15:58;32.13;;;16.37;;
22131;SDS011;11232;51.748;19.390;2022-10-04T23:18:25;31.67;;;14.97;;
22131;SDS011;11232;51.748;19.390;2022-10-04T23:20:53;26.60;;;14.67;;
22131;SDS011;11232;51.748;19.390;2022-10-04T23:23:22;31.87;;;14.97;;
22131;SDS011;11232;51.748;19.390;2022-10-04T23:25:51;35.87;;;14.37;;
22131;SDS011;11232;51.748;19.390;2022-10-04T23:28:18;28.27;;;14.37;;
22131;SDS011;11232;51.748;19.390;2022-10-04T23:30:44;33.77;;;14.70;;
22131;SDS011;11232;51.748;19.390;2022-10-04T23:33:15;27.73;;;14.70;;
22131;SDS011;11232;51.748;19.390;2022-10-04T23:35:44;31.87;;;14.77;;
22131;SDS011;11232;51.748;19.390;2022-10-04T23:38:13;27.37;;;14.90;;
22131;SDS011;11232;51.748;19.390;2022-10-04T23:40:41;29.50;;;13.47;;
22131;SDS011;11232;51.748;19.390;2022-10-04T23:43:07;25.77;;;13.77;;
22131;SDS011;11232;51.748;19.390;2022-10-04T23:45:43;23.63;;;13.27;;
22131;SDS011;11232;51.748;19.390;2022-10-04T23:48:10;24.27;;;12.53;;
22131;SDS011;11232;51.748;19.390;2022-10-04T23:50:41;26.63;;;13.23;;
22131;SDS011;11232;51.748;19.390;2022-10-04T23:53:20;28.43;;;13.60;;
22131;SDS011;11232;51.748;19.390;2022-10-04T23:55:50;26.57;;;13.07;;
22131;SDS011;11232;51.748;19.390;2022-10-04T23:58:21;29.00;;;13.43;;
